createdAt,value
2023-04-07T00:01:27.524Z,99386.88
2023-04-07T00:04:00.871Z,99379.94
2023-04-07T00:06:34.650Z,99385.94
2023-04-07T00:09:07.821Z,99376.63
2023-04-07T00:11:41.520Z,99379.22
2023-04-07T00:14:15.486Z,99377.63
2023-04-07T00:16:50.449Z,99371.97
2023-04-07T00:19:23.692Z,99379.22
2023-04-07T00:21:56.562Z,99378.44
2023-04-07T00:24:34.232Z,99380.88
2023-04-07T00:27:07.854Z,99375.38
2023-04-07T00:29:40.719Z,99368.97
2023-04-07T00:32:15.059Z,99374.50
2023-04-07T00:34:48.286Z,99368.06
2023-04-07T00:37:21.646Z,99376.31
2023-04-07T00:39:54.696Z,99278.63
2023-04-07T00:42:28.151Z,99385.69
2023-04-07T00:45:01.936Z,99390.50
2023-04-07T00:47:36.660Z,99383.16
2023-04-07T00:50:10.140Z,99382.03
2023-04-07T00:52:43.553Z,99390.47
2023-04-07T00:55:17.005Z,99380.81
2023-04-07T00:57:51.838Z,99385.22
2023-04-07T01:00:24.670Z,99383.34
2023-04-07T01:03:01.418Z,99387.22
2023-04-07T01:05:40.111Z,99392.41
2023-04-07T01:08:16.185Z,99378.31
2023-04-07T01:10:52.646Z,99386.38
2023-04-07T01:13:29.768Z,99377.69
2023-04-07T01:16:06.346Z,99379.09
2023-04-07T01:18:41.577Z,99382.94
2023-04-07T01:21:16.584Z,99383.22
2023-04-07T01:23:53.692Z,99383.63
2023-04-07T01:26:29.233Z,99394.63
2023-04-07T01:29:12.519Z,99394.34
2023-04-07T01:31:48.258Z,99407.03
2023-04-07T01:34:22.641Z,99403.53
2023-04-07T01:36:56.205Z,99406.31
2023-04-07T01:39:29.632Z,99401.13
2023-04-07T01:42:03.141Z,99415.09
2023-04-07T01:44:36.749Z,99403.88
2023-04-07T01:47:11.449Z,99400.53
2023-04-07T01:49:45.272Z,99411.91
2023-04-07T01:52:18.596Z,99403.13
2023-04-07T01:54:52.092Z,99400.06
2023-04-07T01:57:25.205Z,99405.56
2023-04-07T01:59:58.269Z,99405.66
2023-04-07T02:02:33.203Z,99405.84
2023-04-07T02:05:10.652Z,99409.41
2023-04-07T02:07:47.733Z,99404.94
2023-04-07T02:10:22.495Z,99415.69
2023-04-07T02:12:57.163Z,99414.38
2023-04-07T02:15:32.530Z,99411.09
2023-04-07T02:18:10.641Z,99411.19
2023-04-07T02:20:45.048Z,99411.34
2023-04-07T02:23:21.229Z,99414.00
2023-04-07T02:25:56.879Z,99408.31
2023-04-07T02:28:29.876Z,99417.47
2023-04-07T02:31:03.068Z,99415.03
2023-04-07T02:33:37.629Z,99415.38
2023-04-07T02:36:10.536Z,99421.56
2023-04-07T02:38:43.993Z,99410.69
2023-04-07T02:41:17.210Z,99415.13
2023-04-07T02:43:50.417Z,99418.78
2023-04-07T02:46:23.482Z,99417.28
2023-04-07T02:48:58.410Z,99422.97
2023-04-07T02:51:31.456Z,99430.81
2023-04-07T02:54:04.622Z,99420.97
2023-04-07T02:56:37.571Z,99428.63
2023-04-07T02:59:10.761Z,99420.44
2023-04-07T03:01:43.957Z,99419.50
2023-04-07T03:04:18.845Z,99421.22
2023-04-07T03:06:51.981Z,99429.81
2023-04-07T03:09:25.151Z,99424.78
2023-04-07T03:12:03.390Z,99428.47
2023-04-07T03:14:37.400Z,99432.13
2023-04-07T03:17:11.599Z,99429.25
2023-04-07T03:19:47.346Z,99430.69
2023-04-07T03:22:20.687Z,99435.22
2023-04-07T03:24:53.718Z,99432.97
2023-04-07T03:27:26.656Z,99434.28
2023-04-07T03:30:00.152Z,99438.63
2023-04-07T03:32:33.791Z,99428.94
2023-04-07T03:35:08.715Z,99432.31
2023-04-07T03:37:41.663Z,99427.56
2023-04-07T03:40:15.173Z,99433.06
2023-04-07T03:42:48.428Z,99439.03
2023-04-07T03:45:21.533Z,99434.09
2023-04-07T03:47:54.815Z,99447.91
2023-04-07T03:50:29.928Z,99441.88
2023-04-07T03:53:03.816Z,99451.31
2023-04-07T03:55:37.251Z,99450.28
2023-04-07T03:58:10.485Z,99450.16
2023-04-07T04:00:43.925Z,99457.38
2023-04-07T04:03:17.343Z,99462.00
2023-04-07T04:05:52.240Z,99462.22
2023-04-07T04:08:25.398Z,99460.53
2023-04-07T04:10:58.406Z,99472.72
2023-04-07T04:13:32.346Z,99471.66
2023-04-07T04:16:16.099Z,99471.13
2023-04-07T04:18:49.123Z,99474.19
2023-04-07T04:21:23.790Z,99473.38
2023-04-07T04:23:56.731Z,99476.41
2023-04-07T04:26:30.031Z,99476.41
2023-04-07T04:29:03.910Z,99482.38
2023-04-07T04:31:36.799Z,99487.56
2023-04-07T04:34:10.056Z,99479.28
2023-04-07T04:36:44.732Z,99484.16
2023-04-07T04:39:17.855Z,99485.50
2023-04-07T04:41:51.097Z,99483.22
2023-04-07T04:44:24.466Z,99493.19
2023-04-07T04:46:57.958Z,99492.97
2023-04-07T04:49:31.599Z,99488.50
2023-04-07T04:52:06.271Z,99496.34
2023-04-07T04:54:39.825Z,99498.88
2023-04-07T04:57:12.950Z,99512.03
2023-04-07T04:59:45.843Z,99496.25
2023-04-07T05:02:19.126Z,99501.97
2023-04-07T05:04:52.323Z,99506.63
2023-04-07T05:07:26.800Z,99502.81
2023-04-07T05:09:59.779Z,99504.84
2023-04-07T05:12:34.140Z,99518.41
2023-04-07T05:15:11.194Z,99519.69
2023-04-07T05:17:50.386Z,99523.72
2023-04-07T05:20:23.782Z,99522.22
2023-04-07T05:22:58.400Z,99522.41
2023-04-07T05:25:31.531Z,99519.56
2023-04-07T05:28:04.663Z,99521.66
2023-04-07T05:30:37.779Z,99528.56
2023-04-07T05:33:11.054Z,99531.09
2023-04-07T05:35:45.538Z,99534.81
2023-04-07T05:38:20.630Z,99532.03
2023-04-07T05:40:53.794Z,99532.38
2023-04-07T05:43:27.056Z,99533.66
2023-04-07T05:46:00.209Z,99538.00
2023-04-07T05:48:33.177Z,99533.63
2023-04-07T05:51:06.283Z,99534.69
2023-04-07T05:53:41.191Z,99533.63
2023-04-07T05:56:14.320Z,99536.31
2023-04-07T05:58:47.610Z,99532.50
2023-04-07T06:01:21.219Z,99539.75
2023-04-07T06:03:54.307Z,99536.75
2023-04-07T06:06:27.897Z,99541.00
2023-04-07T06:09:02.648Z,99539.97
2023-04-07T06:11:35.629Z,99540.56
2023-04-07T06:14:08.691Z,99539.91
2023-04-07T06:16:41.705Z,99533.97
2023-04-07T06:19:14.962Z,99537.66
2023-04-07T06:21:48.202Z,99548.09
2023-04-07T06:24:25.178Z,99547.22
2023-04-07T06:26:58.380Z,99543.44
2023-04-07T06:29:31.676Z,99552.63
2023-04-07T06:32:04.856Z,99552.88
2023-04-07T06:34:37.746Z,99554.28
2023-04-07T06:37:11.086Z,99554.13
2023-04-07T06:39:45.896Z,99559.38
2023-04-07T06:42:18.834Z,99560.63
2023-04-07T06:44:51.872Z,99556.72
2023-04-07T06:47:25.122Z,99562.50
2023-04-07T06:49:58.111Z,99571.13
2023-04-07T06:52:31.235Z,99570.09
2023-04-07T06:55:07.816Z,99575.66
2023-04-07T06:57:41.120Z,99563.50
2023-04-07T07:00:15.084Z,99576.34
2023-04-07T07:02:48.378Z,99581.47
2023-04-07T07:05:21.840Z,99579.59
2023-04-07T07:07:55.302Z,99581.25
2023-04-07T07:10:30.306Z,99580.28
2023-04-07T07:13:04.175Z,99589.22
2023-04-07T07:15:37.415Z,99591.78
2023-04-07T07:18:10.424Z,99590.16
2023-04-07T07:20:43.325Z,99589.75
2023-04-07T07:23:16.880Z,99598.13
2023-04-07T07:25:51.563Z,99595.91
2023-04-07T07:28:24.601Z,99607.41
2023-04-07T07:31:00.895Z,99605.69
2023-04-07T07:33:33.967Z,99612.19
2023-04-07T07:36:07.493Z,99621.63
2023-04-07T07:38:41.379Z,99628.81
2023-04-07T07:41:15.981Z,99620.31
2023-04-07T07:43:49.596Z,99621.34
2023-04-07T07:46:24.426Z,99620.44
2023-04-07T07:48:57.452Z,99620.38
2023-04-07T07:51:30.797Z,99620.78
2023-04-07T07:54:04.268Z,99617.59
2023-04-07T07:56:39.084Z,99630.06
2023-04-07T07:59:12.259Z,99631.34
2023-04-07T08:01:45.628Z,99628.63
2023-04-07T08:04:18.964Z,99632.22
2023-04-07T08:06:52.519Z,99633.78
2023-04-07T08:09:26.222Z,99629.06
2023-04-07T08:12:03.922Z,99623.91
2023-04-07T08:14:38.011Z,99633.34
2023-04-07T08:17:10.950Z,99634.19
2023-04-07T08:19:44.198Z,99633.03
2023-04-07T08:22:19.649Z,99626.25
2023-04-07T08:24:52.751Z,99628.28
2023-04-07T08:27:27.104Z,99620.59
2023-04-07T08:30:00.940Z,99617.72
2023-04-07T08:32:41.906Z,99619.50
2023-04-07T08:35:15.690Z,99615.03
2023-04-07T08:37:49.642Z,99616.69
2023-04-07T08:40:22.762Z,99619.78
2023-04-07T08:43:00.900Z,99621.59
2023-04-07T08:45:35.031Z,99616.72
2023-04-07T08:48:13.230Z,99612.06
2023-04-07T08:50:46.959Z,99614.47
2023-04-07T08:53:24.759Z,99616.59
2023-04-07T08:55:59.124Z,99611.97
2023-04-07T08:58:34.304Z,99607.13
2023-04-07T09:01:07.640Z,99616.81
2023-04-07T09:03:41.650Z,99622.75
2023-04-07T09:06:15.505Z,99616.97
2023-04-07T09:08:48.650Z,99616.63
2023-04-07T09:11:22.048Z,99612.56
2023-04-07T09:13:59.018Z,99603.88
2023-04-07T09:16:32.985Z,99618.38
2023-04-07T09:19:06.478Z,99615.13
2023-04-07T09:21:49.696Z,99605.19
2023-04-07T09:24:23.464Z,99604.59
2023-04-07T09:27:20.408Z,99607.59
2023-04-07T09:30:11.664Z,99601.22
2023-04-07T09:32:44.891Z,99599.16
2023-04-07T09:35:18.799Z,99600.91
2023-04-07T09:38:09.470Z,99592.09
2023-04-07T09:40:42.409Z,99591.06
2023-04-07T09:43:17.259Z,99598.50
2023-04-07T09:45:51.830Z,99608.00
2023-04-07T09:48:25.857Z,99595.34
2023-04-07T09:51:06.559Z,99593.25
2023-04-07T09:53:43.667Z,99593.19
2023-04-07T09:56:17.629Z,99603.16
2023-04-07T09:58:52.027Z,99591.66
2023-04-07T10:01:26.564Z,99593.31
2023-04-07T10:04:00.078Z,99592.03
2023-04-07T10:06:33.237Z,99588.66
2023-04-07T10:09:06.525Z,99591.34
2023-04-07T10:11:41.965Z,99592.22
2023-04-07T10:14:16.087Z,99591.63
2023-04-07T10:16:52.106Z,99587.44
2023-04-07T10:19:26.982Z,99588.88
2023-04-07T10:22:01.113Z,99578.44
2023-04-07T10:24:48.261Z,99578.81
2023-04-07T10:27:26.609Z,99577.50
2023-04-07T10:30:01.528Z,99574.56
2023-04-07T10:32:47.004Z,99573.81
2023-04-07T10:35:20.245Z,99581.28
2023-04-07T10:38:14.157Z,99572.34
2023-04-07T10:40:47.269Z,99570.88
2023-04-07T10:43:38.816Z,99578.13
2023-04-07T10:46:11.976Z,99578.09
2023-04-07T10:49:06.466Z,99576.13
2023-04-07T10:51:39.516Z,99572.44
2023-04-07T10:54:21.137Z,99570.50
2023-04-07T10:57:14.236Z,99569.41
2023-04-07T11:00:05.980Z,99561.25
2023-04-07T11:02:41.289Z,99569.84
2023-04-07T11:05:23.673Z,99566.16
2023-04-07T11:07:58.443Z,99556.19
2023-04-07T11:10:31.833Z,99564.06
2023-04-07T11:13:07.532Z,99562.22
2023-04-07T11:15:41.843Z,99557.41
2023-04-07T11:18:16.861Z,99558.38
2023-04-07T11:20:53.223Z,99554.91
2023-04-07T11:23:27.464Z,99562.09
2023-04-07T11:26:02.167Z,99549.31
2023-04-07T11:28:36.163Z,99560.81
2023-04-07T11:31:09.734Z,99559.69
2023-04-07T11:33:43.805Z,99551.69
2023-04-07T11:36:27.218Z,99553.66
2023-04-07T11:39:00.813Z,99559.53
2023-04-07T11:41:34.485Z,99561.53
2023-04-07T11:44:09.192Z,99556.03
2023-04-07T11:46:53.840Z,99558.69
2023-04-07T11:49:29.184Z,99551.66
2023-04-07T11:52:04.388Z,99557.03
2023-04-07T11:54:43.269Z,99554.34
2023-04-07T11:57:16.481Z,99555.75
2023-04-07T11:59:50.032Z,99545.63
2023-04-07T12:02:32.237Z,99540.94
2023-04-07T12:05:05.902Z,99545.91
2023-04-07T12:07:42.108Z,99549.59
2023-04-07T12:10:25.686Z,99545.66
2023-04-07T12:12:59.799Z,99534.09
2023-04-07T12:15:33.446Z,99542.16
2023-04-07T12:18:07.108Z,99542.25
2023-04-07T12:20:40.199Z,99543.53
2023-04-07T12:23:16.075Z,99544.94
2023-04-07T12:25:49.135Z,99541.97
2023-04-07T12:28:22.029Z,99541.69
2023-04-07T12:30:55.735Z,99545.66
2023-04-07T12:33:28.929Z,99539.19
2023-04-07T12:36:02.189Z,99528.19
2023-04-07T12:38:36.821Z,99529.19
2023-04-07T12:41:09.983Z,99531.56
2023-04-07T12:43:44.062Z,99532.44
2023-04-07T12:46:18.293Z,99532.00
2023-04-07T12:48:51.538Z,99536.38
2023-04-07T12:51:24.776Z,99531.88
2023-04-07T12:53:59.052Z,99525.94
2023-04-07T12:56:32.614Z,99520.59
2023-04-07T12:59:05.668Z,99528.94
2023-04-07T13:01:39.529Z,99528.50
2023-04-07T13:04:13.394Z,99519.22
2023-04-07T13:06:46.574Z,99516.94
2023-04-07T13:09:21.172Z,99504.50
2023-04-07T13:11:57.702Z,99505.06
2023-04-07T13:14:31.341Z,99499.78
2023-04-07T13:17:05.249Z,99498.78
2023-04-07T13:19:40.100Z,99504.44
2023-04-07T13:22:18.231Z,99505.69
2023-04-07T13:24:56.349Z,99506.28
2023-04-07T13:27:29.621Z,99505.72
2023-04-07T13:30:03.064Z,99504.56
2023-04-07T13:32:37.912Z,99507.97
2023-04-07T13:35:11.027Z,99511.50
2023-04-07T13:37:44.426Z,99504.00
2023-04-07T13:40:18.713Z,99506.84
2023-04-07T13:42:52.402Z,99504.03
2023-04-07T13:45:25.511Z,99497.56
2023-04-07T13:47:58.729Z,99507.38
2023-04-07T13:50:31.834Z,99498.53
2023-04-07T13:53:05.124Z,99494.00
2023-04-07T13:55:39.499Z,99493.78
2023-04-07T13:58:12.974Z,99494.53
2023-04-07T14:00:46.296Z,99486.78
2023-04-07T14:03:19.675Z,99496.31
2023-04-07T14:05:52.746Z,99495.78
2023-04-07T14:08:26.048Z,99496.47
2023-04-07T14:11:00.461Z,99490.69
2023-04-07T14:13:36.501Z,99495.78
2023-04-07T14:16:09.818Z,99493.84
2023-04-07T14:18:42.859Z,99498.47
2023-04-07T14:21:15.886Z,99496.47
2023-04-07T14:23:49.244Z,99501.16
2023-04-07T14:26:23.836Z,99497.19
2023-04-07T14:28:57.059Z,99498.44
2023-04-07T14:31:30.222Z,99494.38
2023-04-07T14:34:03.488Z,99497.13
2023-04-07T14:36:36.636Z,99501.09
2023-04-07T14:39:09.601Z,99510.03
2023-04-07T14:41:46.280Z,99508.31
2023-04-07T14:44:19.788Z,99508.47
2023-04-07T14:46:52.859Z,99507.75
2023-04-07T14:49:28.457Z,99503.97
2023-04-07T14:52:01.652Z,99508.47
2023-04-07T14:54:35.407Z,99506.59
2023-04-07T14:57:09.780Z,99503.75
2023-04-07T14:59:42.940Z,99500.41
2023-04-07T15:02:16.285Z,99510.50
2023-04-07T15:04:49.576Z,99500.81
2023-04-07T15:07:22.694Z,99504.03
2023-04-07T15:09:55.556Z,99505.59
2023-04-07T15:12:31.716Z,99501.97
2023-04-07T15:15:05.963Z,99509.56
2023-04-07T15:17:44.457Z,99509.25
2023-04-07T15:20:17.930Z,99507.16
2023-04-07T15:22:50.999Z,99512.81
2023-04-07T15:25:24.349Z,99507.03
2023-04-07T15:27:59.139Z,99507.47
2023-04-07T15:30:34.184Z,99519.00
2023-04-07T15:33:08.294Z,99509.84
2023-04-07T15:35:42.353Z,99510.44
2023-04-07T15:38:15.415Z,99508.47
2023-04-07T15:40:48.537Z,99505.94
2023-04-07T15:43:23.029Z,99507.47
2023-04-07T15:45:56.338Z,99514.06
2023-04-07T15:48:29.290Z,99509.84
2023-04-07T15:51:02.500Z,99516.03
2023-04-07T15:53:35.736Z,99522.22
2023-04-07T15:56:11.897Z,99520.28
2023-04-07T15:58:47.476Z,99522.66
2023-04-07T16:01:20.489Z,99524.78
2023-04-07T16:03:54.166Z,99524.59
2023-04-07T16:06:27.764Z,99530.53
2023-04-07T16:09:00.729Z,99536.03
2023-04-07T16:11:35.631Z,99539.00
2023-04-07T16:14:10.400Z,99531.81
2023-04-07T16:16:45.501Z,99538.88
2023-04-07T16:19:18.587Z,99544.78
2023-04-07T16:21:51.546Z,99549.00
2023-04-07T16:24:24.603Z,99547.31
2023-04-07T16:26:58.141Z,99556.47
2023-04-07T16:29:32.535Z,99556.31
2023-04-07T16:32:05.511Z,99554.22
2023-04-07T16:34:38.831Z,99561.66
2023-04-07T16:37:12.780Z,99562.50
2023-04-07T16:39:46.150Z,99558.72
2023-04-07T16:42:19.424Z,99570.69
2023-04-07T16:44:53.749Z,99577.84
2023-04-07T16:47:27.303Z,99572.22
2023-04-07T16:50:00.440Z,99580.38
2023-04-07T16:52:33.865Z,99588.53
2023-04-07T16:55:07.460Z,99587.41
2023-04-07T16:57:40.976Z,99592.59
2023-04-07T17:00:15.939Z,99594.44
2023-04-07T17:02:49.044Z,99605.06
2023-04-07T17:05:22.199Z,99607.75
2023-04-07T17:07:56.760Z,99609.88
2023-04-07T17:10:30.796Z,99609.16
2023-04-07T17:13:05.116Z,99614.13
2023-04-07T17:15:40.170Z,99619.88
2023-04-07T17:18:13.730Z,99628.28
2023-04-07T17:20:46.861Z,99624.88
2023-04-07T17:23:19.811Z,99627.34
2023-04-07T17:25:52.919Z,99631.13
2023-04-07T17:28:29.958Z,99632.69
2023-04-07T17:31:04.470Z,99634.66
2023-04-07T17:33:37.968Z,99640.13
2023-04-07T17:36:10.957Z,99649.16
2023-04-07T17:38:43.942Z,99649.13
2023-04-07T17:41:17.572Z,99655.81
2023-04-07T17:43:50.719Z,99658.38
2023-04-07T17:46:25.083Z,99664.84
2023-04-07T17:48:59.046Z,99668.34
2023-04-07T17:51:32.884Z,99675.63
2023-04-07T17:54:06.166Z,99677.22
2023-04-07T17:56:40.303Z,99678.06
2023-04-07T17:59:13.318Z,99684.13
2023-04-07T18:01:47.678Z,99685.34
2023-04-07T18:04:21.217Z,99687.81
2023-04-07T18:06:54.747Z,99685.78
2023-04-07T18:09:29.198Z,99698.53
2023-04-07T18:12:03.761Z,99702.47
2023-04-07T18:14:37.510Z,99695.09
2023-04-07T18:17:12.103Z,99707.56
2023-04-07T18:19:45.552Z,99710.53
2023-04-07T18:22:18.759Z,99709.78
2023-04-07T18:24:52.338Z,99721.56
2023-04-07T18:27:28.000Z,99722.13
2023-04-07T18:30:01.101Z,99727.56
2023-04-07T18:32:35.768Z,99728.34
2023-04-07T18:35:09.413Z,99725.94
2023-04-07T18:37:44.193Z,99727.03
2023-04-07T18:40:17.633Z,99730.41
2023-04-07T18:42:51.163Z,99735.59
2023-04-07T18:45:24.141Z,99735.25
2023-04-07T18:47:58.512Z,99728.47
2023-04-07T18:50:31.612Z,99734.53
2023-04-07T18:53:04.876Z,99732.22
2023-04-07T18:55:38.343Z,99735.97
2023-04-07T18:58:11.545Z,99740.13
2023-04-07T19:00:45.024Z,99742.88
2023-04-07T19:03:19.860Z,99740.78
2023-04-07T19:05:53.191Z,99741.25
2023-04-07T19:08:28.545Z,99741.06
2023-04-07T19:11:02.348Z,99745.72
2023-04-07T19:13:36.478Z,99749.22
2023-04-07T19:16:10.242Z,99753.81
2023-04-07T19:18:44.898Z,99755.38
2023-04-07T19:21:18.119Z,99761.25
2023-04-07T19:23:52.738Z,99764.09
2023-04-07T19:26:26.635Z,99759.84
2023-04-07T19:28:59.683Z,99763.41
2023-04-07T19:31:32.712Z,99762.75
2023-04-07T19:34:07.070Z,99763.63
2023-04-07T19:36:40.358Z,99760.91
2023-04-07T19:39:13.823Z,99770.13
2023-04-07T19:41:47.099Z,99769.25
2023-04-07T19:44:20.130Z,99771.00
2023-04-07T19:46:53.535Z,99764.34
2023-04-07T19:49:27.933Z,99763.97
2023-04-07T19:52:00.980Z,99771.31
2023-04-07T19:54:34.149Z,99771.03
2023-04-07T19:57:07.468Z,99767.72
2023-04-07T19:59:40.752Z,99775.63
2023-04-07T20:02:14.084Z,99784.56
2023-04-07T20:04:48.733Z,99786.06
2023-04-07T20:07:22.799Z,99780.47
2023-04-07T20:09:57.316Z,99792.50
2023-04-07T20:12:31.415Z,99796.78
2023-04-07T20:15:07.090Z,99807.38
2023-04-07T20:17:40.159Z,99800.25
2023-04-07T20:20:14.813Z,99795.06
2023-04-07T20:22:47.978Z,99807.38
2023-04-07T20:25:21.742Z,99801.63
2023-04-07T20:27:54.806Z,99811.97
2023-04-07T20:30:28.078Z,99807.59
2023-04-07T20:33:01.196Z,99816.72
2023-04-07T20:35:35.713Z,99811.06
2023-04-07T20:38:10.420Z,99811.88
2023-04-07T20:40:44.113Z,99812.16
2023-04-07T20:43:18.353Z,99816.50
2023-04-07T20:45:52.288Z,99815.38
2023-04-07T20:48:25.264Z,99813.47
2023-04-07T20:50:59.834Z,99818.31
2023-04-07T20:53:32.941Z,99819.25
2023-04-07T20:56:06.553Z,99822.09
2023-04-07T20:58:39.463Z,99814.94
2023-04-07T21:01:12.734Z,99819.44
2023-04-07T21:03:46.117Z,99821.72
2023-04-07T21:06:20.628Z,99820.75
2023-04-07T21:08:53.750Z,99824.88
2023-04-07T21:11:27.492Z,99825.59
2023-04-07T21:14:01.588Z,99820.94
2023-04-07T21:16:35.415Z,99820.50
2023-04-07T21:19:08.350Z,99835.63
2023-04-07T21:21:42.841Z,99831.28
2023-04-07T21:24:15.960Z,99829.25
2023-04-07T21:26:49.148Z,99835.53
2023-04-07T21:29:22.822Z,99837.47
2023-04-07T21:31:56.372Z,99841.69
2023-04-07T21:34:29.598Z,99841.94
2023-04-07T21:37:04.344Z,99836.50
2023-04-07T21:39:37.300Z,99847.78
2023-04-07T21:42:11.000Z,99840.38
2023-04-07T21:44:44.151Z,99838.91
2023-04-07T21:47:17.611Z,99844.97
2023-04-07T21:49:50.566Z,99853.22
2023-04-07T21:52:25.254Z,99848.81
2023-04-07T21:54:58.352Z,99842.28
2023-04-07T21:57:31.861Z,99853.06
2023-04-07T22:00:05.371Z,99847.16
2023-04-07T22:02:38.605Z,99846.72
2023-04-07T22:05:11.878Z,99858.16
2023-04-07T22:07:46.935Z,99856.66
2023-04-07T22:10:19.939Z,99858.53
2023-04-07T22:12:53.619Z,99862.41
2023-04-07T22:15:27.197Z,99859.72
2023-04-07T22:18:00.791Z,99865.19
2023-04-07T22:20:33.999Z,99862.16
2023-04-07T22:23:08.875Z,99868.19
2023-04-07T22:25:41.790Z,99861.50
2023-04-07T22:28:14.957Z,99868.75
2023-04-07T22:30:48.112Z,99869.41
2023-04-07T22:33:21.215Z,99873.06
2023-04-07T22:35:54.361Z,99876.53
2023-04-07T22:38:29.392Z,99876.34
2023-04-07T22:41:02.481Z,99873.69
2023-04-07T22:43:35.430Z,99876.03
2023-04-07T22:46:08.422Z,99869.94
2023-04-07T22:48:41.430Z,99878.88
2023-04-07T22:51:14.589Z,99880.50
2023-04-07T22:53:49.394Z,99878.13
2023-04-07T22:56:22.493Z,99876.88
2023-04-07T22:58:55.696Z,99870.94
2023-04-07T23:01:28.889Z,99868.31
2023-04-07T23:04:03.018Z,99867.03
2023-04-07T23:06:36.350Z,99874.38
2023-04-07T23:09:11.745Z,99877.56
2023-04-07T23:11:47.277Z,99877.28
2023-04-07T23:14:20.605Z,99870.81
2023-04-07T23:16:56.156Z,99869.59
2023-04-07T23:19:29.512Z,99863.81
2023-04-07T23:22:02.685Z,99867.09
2023-04-07T23:24:37.149Z,99867.41
2023-04-07T23:27:11.077Z,99874.75
2023-04-07T23:29:44.531Z,99874.22
2023-04-07T23:32:17.409Z,99874.19
2023-04-07T23:34:50.427Z,99873.00
2023-04-07T23:37:23.644Z,99871.53
2023-04-07T23:39:58.171Z,99865.97
2023-04-07T23:42:31.252Z,99875.53
2023-04-07T23:45:04.328Z,99870.34
2023-04-07T23:47:37.394Z,99797.09
2023-04-07T23:50:10.625Z,99867.19
2023-04-07T23:52:44.226Z,99870.81
2023-04-07T23:55:18.979Z,99866.56
2023-04-07T23:57:52.163Z,99865.03
